Time;durP1;ratioP1;P1;durP2;ratioP2;P2;SDS_P1;SDS_P2;PMS_P1;PMS_P2;Temp;Humidity;BMP_temperature;BMP_pressure;BME280_temperature;BME280_humidity;BME280_pressure;Samples;Min_cycle;Max_cycle;Signal;HPM_P1;HPM_P2
2022/01/01 00:02:23;;;;;;;1058.55;321.25;;;;;;;2.41;100.00;97868.94;4912731;29;20046;-86
2022/01/01 00:04:49;;;;;;;1121.75;333.92;;;;;;;2.40;100.00;97857.50;4936499;29;20538;-84
2022/01/01 00:07:16;;;;;;;1304.80;321.00;;;;;;;2.45;100.00;97865.31;4928441;29;20043;-84
2022/01/01 00:09:43;;;;;;;1877.63;380.63;;;;;;;2.50;100.00;97859.00;4936160;29;20517;-84
2022/01/01 00:12:09;;;;;;;1642.00;368.92;;;;;;;2.44;100.00;97859.16;4924443;29;20126;-85
2022/01/01 00:14:36;;;;;;;1540.10;379.08;;;;;;;2.39;100.00;97834.69;4927329;29;20152;-85
2022/01/01 00:17:01;;;;;;;1481.32;383.17;;;;;;;2.43;100.00;97840.75;4908314;29;20043;-85
2022/01/01 00:19:27;;;;;;;1078.93;348.65;;;;;;;2.45;100.00;97850.34;4928200;29;20032;-84
2022/01/01 00:21:53;;;;;;;1539.53;365.67;;;;;;;2.39;100.00;97823.25;4921734;29;20043;-85
2022/01/01 00:24:18;;;;;;;1650.50;372.00;;;;;;;2.54;100.00;97842.22;4919739;28;20039;-85
2022/01/01 00:26:44;;;;;;;1999.90;390.27;;;;;;;2.46;100.00;97825.69;4933575;29;20439;-83
2022/01/01 00:29:09;;;;;;;1189.00;333.77;;;;;;;2.50;100.00;97827.34;4932887;29;20160;-84
2022/01/01 00:31:35;;;;;;;1995.05;356.52;;;;;;;2.31;100.00;97815.50;4921341;29;20035;-84
2022/01/01 00:34:01;;;;;;;1966.95;357.33;;;;;;;2.47;100.00;97840.63;4911030;29;20071;-85
2022/01/01 00:36:26;;;;;;;1124.18;285.73;;;;;;;2.39;100.00;97834.69;4930156;29;20062;-85
2022/01/01 00:38:52;;;;;;;778.00;264.58;;;;;;;2.36;100.00;97837.38;4921245;28;20066;-81
2022/01/01 00:41:18;;;;;;;941.42;264.08;;;;;;;2.10;100.00;97830.09;4915629;29;20043;-85
2022/01/01 00:43:44;;;;;;;786.92;230.35;;;;;;;2.13;100.00;97837.94;4910829;29;20046;-83
2022/01/01 00:46:09;;;;;;;1083.78;239.32;;;;;;;2.00;100.00;97825.94;4923707;29;20063;-84
2022/01/01 00:49:01;;;;;;;1000.22;235.48;;;;;;;1.92;100.00;97832.31;4924139;29;20054;-85
2022/01/01 00:51:26;;;;;;;720.72;218.05;;;;;;;1.98;100.00;97832.16;4939970;29;20035;-84
2022/01/01 00:53:52;;;;;;;867.45;224.48;;;;;;;1.91;100.00;97841.09;4924111;29;20093;-84
2022/01/01 00:56:17;;;;;;;568.67;186.45;;;;;;;1.87;100.00;97835.06;4907636;29;20039;-84
2022/01/01 00:58:43;;;;;;;929.65;241.77;;;;;;;1.89;100.00;97838.53;4927506;29;20411;-85
2022/01/01 01:01:08;;;;;;;639.72;238.93;;;;;;;1.93;100.00;97823.50;4923397;29;20476;-85
2022/01/01 01:03:34;;;;;;;930.28;250.40;;;;;;;1.91;100.00;97825.28;4939630;29;20031;-84
2022/01/01 01:06:00;;;;;;;621.50;224.57;;;;;;;1.87;100.00;97807.81;4921940;29;20039;-84
2022/01/01 01:08:27;;;;;;;746.83;229.48;;;;;;;1.95;100.00;97814.66;4909533;29;20027;-84
2022/01/01 01:10:55;;;;;;;609.45;218.13;;;;;;;1.95;100.00;97817.28;4923331;29;20055;-84
2022/01/01 01:13:21;;;;;;;1138.38;254.45;;;;;;;1.99;100.00;97840.06;4908378;29;20046;-83
2022/01/01 01:15:47;;;;;;;752.92;224.02;;;;;;;1.96;100.00;97823.44;4909031;29;20031;-84
2022/01/01 01:18:13;;;;;;;692.83;224.85;;;;;;;2.00;100.00;97838.28;4928116;29;20088;-83
2022/01/01 01:20:39;;;;;;;600.47;206.18;;;;;;;1.98;100.00;97840.06;4926079;29;20119;-84
2022/01/01 01:23:05;;;;;;;1178.78;271.98;;;;;;;2.03;100.00;97819.75;4929567;29;20043;-84
2022/01/01 01:25:49;;;;;;;506.88;208.32;;;;;;;2.07;100.00;97826.66;4928049;29;20631;-84
2022/01/01 01:28:14;;;;;;;609.85;210.73;;;;;;;2.02;100.00;97810.97;4935742;29;20055;-84
2022/01/01 01:30:41;;;;;;;472.02;182.68;;;;;;;2.08;100.00;97828.41;4920759;29;20397;-82
2022/01/01 01:33:07;;;;;;;566.95;182.98;;;;;;;2.07;100.00;97821.38;4929635;29;20045;-84
2022/01/01 01:35:33;;;;;;;619.58;181.20;;;;;;;1.97;100.00;97815.47;4916467;29;20050;-84
2022/01/01 01:37:59;;;;;;;1528.95;288.25;;;;;;;2.10;100.00;97816.91;4939518;29;20085;-84
2022/01/01 01:40:25;;;;;;;490.52;177.85;;;;;;;2.13;100.00;97818.59;4923451;29;20035;-84
2022/01/01 01:42:51;;;;;;;616.65;189.45;;;;;;;2.02;100.00;97818.88;4920582;29;20647;-83
2022/01/01 01:45:19;;;;;;;562.67;177.98;;;;;;;2.12;100.00;97830.91;4926269;29;20126;-85
2022/01/01 01:47:46;;;;;;;469.90;163.15;;;;;;;2.06;100.00;97824.94;4939545;29;20034;-85
2022/01/01 01:50:13;;;;;;;621.13;165.70;;;;;;;2.01;100.00;97811.84;4937264;29;20446;-84
2022/01/01 01:52:40;;;;;;;642.58;171.10;;;;;;;2.05;100.00;97824.09;4938783;29;20039;-84
2022/01/01 01:55:08;;;;;;;850.55;192.35;;;;;;;2.01;100.00;97821.53;4939319;29;20035;-85
2022/01/01 01:57:41;;;;;;;510.27;166.95;;;;;;;1.98;100.00;97819.84;4922665;29;20024;-84
2022/01/01 02:03:05;;;;;;;558.10;164.98;;;;;;;2.01;100.00;97821.53;4933820;29;20050;-85
2022/01/01 02:05:34;;;;;;;482.27;178.32;;;;;;;2.02;100.00;97825.91;4927515;29;20047;-84
2022/01/01 02:08:00;;;;;;;588.20;193.10;;;;;;;2.10;100.00;97832.75;4919242;29;20050;-83
2022/01/01 02:10:25;;;;;;;536.85;170.70;;;;;;;2.13;100.00;97831.78;4903508;29;20036;-84
2022/01/01 02:12:54;;;;;;;429.40;147.90;;;;;;;2.09;100.00;97831.00;4922363;29;20063;-83
2022/01/01 02:15:42;;;;;;;706.33;183.65;;;;;;;2.10;100.00;97823.97;4920931;29;20039;-85
2022/01/01 02:18:07;;;;;;;457.23;154.88;;;;;;;2.11;100.00;97808.09;4921219;29;20099;-85
2022/01/01 02:20:33;;;;;;;411.05;158.48;;;;;;;2.06;100.00;97798.56;4926264;29;20125;-85
2022/01/01 02:23:00;;;;;;;750.47;189.20;;;;;;;2.09;100.00;97814.31;4938598;28;20039;-85
2022/01/01 02:25:27;;;;;;;454.92;159.00;;;;;;;2.04;100.00;97803.00;4918353;29;20040;-83
2022/01/01 02:27:52;;;;;;;409.98;146.23;;;;;;;1.89;100.00;97800.72;4912297;29;20062;-84
2022/01/01 02:30:18;;;;;;;435.63;132.25;;;;;;;1.70;100.00;97786.25;4903861;29;20039;-84
2022/01/01 02:32:44;;;;;;;485.70;140.00;;;;;;;1.82;100.00;97788.59;4927406;29;20543;-84
2022/01/01 02:35:13;;;;;;;380.98;124.32;;;;;;;1.90;100.00;97797.22;4914185;29;20074;-84
2022/01/01 02:37:39;;;;;;;412.02;128.65;;;;;;;1.90;100.00;97806.00;4930557;29;20126;-84
2022/01/01 02:40:06;;;;;;;320.50;116.88;;;;;;;1.84;100.00;97789.44;4903423;29;20031;-84
2022/01/01 02:42:32;;;;;;;310.33;101.00;;;;;;;1.76;100.00;97794.88;4922548;29;20047;-84
2022/01/01 02:44:59;;;;;;;344.95;110.35;;;;;;;1.62;100.00;97779.41;4932661;29;20038;-83
2022/01/01 02:47:25;;;;;;;283.13;103.28;;;;;;;1.58;100.00;97784.75;4938130;29;20584;-83
2022/01/01 02:49:51;;;;;;;336.85;118.82;;;;;;;1.70;100.00;97783.59;4905067;29;20046;-83
2022/01/01 02:52:17;;;;;;;547.97;148.00;;;;;;;1.66;100.00;97781.97;4918759;29;20397;-84
2022/01/01 02:54:42;;;;;;;818.00;197.52;;;;;;;1.73;100.00;97781.75;4918119;29;20519;-84
2022/01/01 02:57:08;;;;;;;427.15;164.93;;;;;;;1.83;100.00;97790.34;4934627;29;20050;-82
2022/01/01 02:59:33;;;;;;;566.45;192.20;;;;;;;1.76;100.00;97786.97;4902829;29;20050;-83
2022/01/01 03:01:59;;;;;;;846.33;207.40;;;;;;;1.76;100.00;97791.38;4918733;29;20036;-83
2022/01/01 03:04:25;;;;;;;608.83;178.80;;;;;;;1.60;100.00;97789.09;4923198;29;20098;-83
2022/01/01 03:06:55;;;;;;;817.85;221.70;;;;;;;1.57;100.00;97780.38;4932851;29;20031;-83
2022/01/01 03:09:23;;;;;;;580.88;180.15;;;;;;;1.62;100.00;97795.22;4923190;29;20049;-83
2022/01/01 03:11:50;;;;;;;579.58;184.65;;;;;;;1.51;100.00;97777.88;4937263;29;20044;-83
2022/01/01 03:14:17;;;;;;;513.83;187.85;;;;;;;1.52;100.00;97779.63;4914192;29;20119;-84
2022/01/01 03:16:46;;;;;;;910.17;222.38;;;;;;;1.55;100.00;97780.44;4936859;29;20094;-83
2022/01/01 03:19:12;;;;;;;479.70;179.90;;;;;;;1.52;100.00;97777.88;4936881;29;20051;-83
2022/01/01 03:21:38;;;;;;;866.40;231.23;;;;;;;1.55;100.00;97785.69;4920846;29;20512;-83
2022/01/01 03:24:04;;;;;;;641.80;196.02;;;;;;;1.61;100.00;97774.16;4933566;29;20031;-82
2022/01/01 03:26:29;;;;;;;857.70;221.13;;;;;;;1.69;100.00;97771.34;4946809;29;20043;-83
2022/01/01 03:28:55;;;;;;;603.45;188.25;;;;;;;1.63;100.00;97767.94;4929029;29;20040;-83
2022/01/01 03:31:20;;;;;;;1090.03;238.48;;;;;;;1.67;100.00;97765.22;4917027;29;20423;-83
2022/01/01 03:33:46;;;;;;;827.65;217.25;;;;;;;1.57;100.00;97762.81;4909122;28;20053;-83
2022/01/01 03:36:11;;;;;;;588.30;193.45;;;;;;;1.64;100.00;97763.53;4907006;29;20069;-83
2022/01/01 03:38:37;;;;;;;970.33;233.45;;;;;;;1.59;100.00;97768.94;4927470;29;20046;-83
2022/01/01 03:41:03;;;;;;;870.10;207.77;;;;;;;1.63;100.00;97757.38;4917228;29;20035;-83
2022/01/01 03:43:28;;;;;;;968.50;215.88;;;;;;;1.51;100.00;97756.78;4902130;29;20075;-83
2022/01/01 03:45:54;;;;;;;399.67;160.32;;;;;;;1.50;100.00;97748.06;4924537;29;20043;-83
2022/01/01 03:48:19;;;;;;;480.60;163.90;;;;;;;1.57;100.00;97746.97;4929752;29;20039;-83
2022/01/01 03:50:45;;;;;;;471.88;165.13;;;;;;;1.63;100.00;97753.91;4919923;29;20031;-83
2022/01/01 03:53:11;;;;;;;373.15;139.68;;;;;;;1.55;100.00;97735.63;4929958;29;20039;-82
2022/01/01 03:55:36;;;;;;;392.25;127.72;;;;;;;1.53;100.00;97732.16;4920171;29;20039;-83
2022/01/01 03:58:02;;;;;;;600.72;148.23;;;;;;;1.37;100.00;97737.81;4915641;29;20048;-83
2022/01/01 04:00:28;;;;;;;524.13;146.77;;;;;;;1.32;100.00;97743.19;4930887;29;20423;-83
2022/01/01 04:02:53;;;;;;;757.60;163.43;;;;;;;1.28;100.00;97738.91;4928473;29;20427;-83
2022/01/01 04:05:19;;;;;;;333.02;128.05;;;;;;;1.33;100.00;97737.00;4928088;29;20044;-83
2022/01/01 04:07:45;;;;;;;537.28;142.73;;;;;;;1.42;100.00;97744.72;4940367;29;20043;-84
2022/01/01 04:10:13;;;;;;;622.50;144.50;;;;;;;1.34;100.00;97754.56;4919326;29;20492;-83
2022/01/01 04:12:39;;;;;;;480.25;139.82;;;;;;;1.27;100.00;97749.44;4906000;29;20584;-84
2022/01/01 04:15:05;;;;;;;469.17;138.20;;;;;;;1.24;100.00;97750.38;4929504;29;20043;-84
2022/01/01 04:17:35;;;;;;;444.70;133.00;;;;;;;1.27;100.00;97763.50;4936412;29;20047;-83
2022/01/01 04:20:01;;;;;;;313.70;122.90;;;;;;;1.29;100.00;97745.03;4941240;29;20039;-83
2022/01/01 04:22:27;;;;;;;389.80;135.90;;;;;;;1.34;100.00;97743.16;4921476;29;20431;-84
2022/01/01 04:24:53;;;;;;;314.65;127.55;;;;;;;1.38;100.00;97748.34;4925886;29;20039;-84
2022/01/01 04:27:18;;;;;;;386.15;152.45;;;;;;;1.37;100.00;97753.63;4910842;29;20048;-84
2022/01/01 04:29:44;;;;;;;472.05;154.00;;;;;;;1.40;100.00;97750.91;4924530;29;20043;-84
2022/01/01 04:32:13;;;;;;;325.65;130.55;;;;;;;1.45;100.00;97752.53;4921539;29;20038;-84
2022/01/01 04:34:39;;;;;;;367.95;145.07;;;;;;;1.51;100.00;97739.22;4922300;29;20472;-84
2022/01/01 04:37:11;;;;;;;325.02;132.52;;;;;;;1.54;100.00;97743.56;4921782;29;20040;-84
2022/01/01 04:39:37;;;;;;;350.05;142.60;;;;;;;1.63;100.00;97749.47;4929755;29;20130;-84
2022/01/01 04:42:03;;;;;;;325.25;137.15;;;;;;;1.55;100.00;97747.94;4921733;29;20049;-85
2022/01/01 04:44:29;;;;;;;322.17;138.50;;;;;;;1.58;100.00;97754.00;4936263;29;20418;-84
2022/01/01 04:46:54;;;;;;;381.77;151.93;;;;;;;1.57;100.00;97736.44;4923156;29;20043;-84
2022/01/01 04:49:21;;;;;;;317.08;133.45;;;;;;;1.57;100.00;97752.25;4912950;29;20059;-84
2022/01/01 04:52:06;;;;;;;367.15;153.23;;;;;;;1.55;100.00;97755.84;4912118;29;20058;-84
2022/01/01 04:54:33;;;;;;;430.60;159.77;;;;;;;1.50;100.00;97749.81;4926368;29;20035;-85
2022/01/01 04:56:59;;;;;;;477.90;169.13;;;;;;;1.48;100.00;97756.88;4920777;29;20032;-85
2022/01/01 04:59:25;;;;;;;312.35;131.13;;;;;;;1.52;100.00;97769.97;4932538;29;20039;-84
2022/01/01 05:01:50;;;;;;;358.38;136.75;;;;;;;1.53;100.00;97765.56;4928021;29;20038;-85
2022/01/01 05:04:16;;;;;;;362.42;136.27;;;;;;;1.51;100.00;97765.56;4929316;29;20039;-84
2022/01/01 05:06:42;;;;;;;474.65;156.68;;;;;;;1.49;100.00;97774.44;4934063;29;20118;-84
2022/01/01 05:09:08;;;;;;;319.58;127.70;;;;;;;1.42;100.00;97772.81;4931684;29;20035;-84
2022/01/01 05:11:34;;;;;;;378.88;154.23;;;;;;;1.48;100.00;97786.72;4926139;29;20106;-84
2022/01/01 05:14:00;;;;;;;395.35;155.48;;;;;;;1.46;100.00;97770.09;4931940;29;20500;-84
2022/01/01 05:16:25;;;;;;;327.27;136.48;;;;;;;1.50;100.00;97773.53;4923939;29;20118;-84
2022/01/01 05:18:51;;;;;;;342.38;150.88;;;;;;;1.56;100.00;97776.91;4924149;29;20095;-84
2022/01/01 05:21:16;;;;;;;388.25;151.75;;;;;;;1.53;100.00;97791.91;4920967;29;20043;-84
2022/01/01 05:23:42;;;;;;;459.52;169.27;;;;;;;1.57;100.00;97801.47;4915769;29;20039;-84
2022/01/01 05:26:08;;;;;;;325.55;135.57;;;;;;;1.51;100.00;97781.38;4922221;28;20120;-84
2022/01/01 05:28:33;;;;;;;339.58;139.95;;;;;;;1.58;100.00;97780.34;4915800;29;20081;-83
2022/01/01 05:30:59;;;;;;;333.30;136.13;;;;;;;1.71;100.00;97791.50;4937696;29;20137;-82
2022/01/01 05:33:24;;;;;;;323.02;134.60;;;;;;;1.72;100.00;97787.09;4930776;29;20035;-85
2022/01/01 05:35:50;;;;;;;349.25;142.55;;;;;;;1.70;100.00;97786.25;4908222;29;20102;-84
2022/01/01 05:38:17;;;;;;;312.00;131.38;;;;;;;1.69;100.00;97780.13;4913101;29;20039;-85
2022/01/01 05:40:43;;;;;;;298.80;125.72;;;;;;;1.79;100.00;97767.56;4928234;29;20043;-83
2022/01/01 05:43:13;;;;;;;311.15;127.47;;;;;;;1.81;100.00;97779.84;4931925;29;20519;-83
2022/01/01 05:45:43;;;;;;;348.17;135.32;;;;;;;1.79;100.00;97780.75;4933543;29;20527;-82
2022/01/01 05:48:09;;;;;;;322.38;124.80;;;;;;;1.78;100.00;97755.31;4912831;29;20035;-83
2022/01/01 05:50:35;;;;;;;266.52;113.53;;;;;;;1.82;100.00;97741.13;4929580;29;20119;-83
2022/01/01 05:53:01;;;;;;;260.08;113.55;;;;;;;1.72;100.00;97773.91;4903961;29;20047;-83
2022/01/01 05:55:26;;;;;;;293.85;119.32;;;;;;;1.64;100.00;97792.53;4911700;29;20043;-84
2022/01/01 05:57:52;;;;;;;257.48;106.72;;;;;;;1.66;100.00;97788.09;4919345;29;20039;-84
2022/01/01 06:00:18;;;;;;;343.77;127.55;;;;;;;1.59;100.00;97782.09;4909516;29;20082;-84
2022/01/01 06:02:43;;;;;;;314.55;118.80;;;;;;;1.67;100.00;97804.75;4938374;29;20075;-83
2022/01/01 06:05:10;;;;;;;248.88;102.28;;;;;;;1.59;100.00;97797.91;4910347;29;20040;-83
2022/01/01 06:07:36;;;;;;;271.73;109.10;;;;;;;1.63;100.00;97809.28;4919819;29;20443;-83
2022/01/01 06:10:03;;;;;;;254.43;103.53;;;;;;;1.62;100.00;97813.66;4932045;29;20035;-77
2022/01/01 06:12:28;;;;;;;246.02;99.40;;;;;;;1.59;100.00;97807.59;4911990;29;20095;-83
2022/01/01 06:14:54;;;;;;;260.88;112.30;;;;;;;1.57;100.00;97819.91;4920161;29;20035;-83
2022/01/01 06:17:20;;;;;;;267.13;110.82;;;;;;;1.58;100.00;97826.94;4909303;29;20039;-82
2022/01/01 06:19:45;;;;;;;267.92;114.75;;;;;;;1.58;100.00;97822.53;4914535;29;20067;-84
2022/01/01 06:22:11;;;;;;;265.13;119.45;;;;;;;1.72;100.00;97829.28;4934380;29;20043;-84
2022/01/01 06:24:40;;;;;;;278.30;123.80;;;;;;;1.69;100.00;97808.25;4935849;29;20039;-84
2022/01/01 06:27:06;;;;;;;290.35;131.55;;;;;;;1.73;100.00;97812.53;4928066;29;20488;-84
2022/01/01 06:29:31;;;;;;;273.38;126.90;;;;;;;1.81;100.00;97815.88;4921084;29;20046;-84
2022/01/01 06:31:57;;;;;;;296.38;134.43;;;;;;;1.89;100.00;97821.84;4922790;29;20038;-85
2022/01/01 06:34:22;;;;;;;309.70;133.85;;;;;;;2.07;100.00;97810.84;4922419;29;20043;-84
2022/01/01 06:36:51;;;;;;;270.08;123.68;;;;;;;2.12;100.00;97803.69;4905697;29;20563;-84
2022/01/01 06:39:17;;;;;;;269.67;122.93;;;;;;;2.10;100.00;97789.66;4919783;29;20626;-84
2022/01/01 06:41:43;;;;;;;272.60;127.72;;;;;;;2.07;100.00;97808.19;4921734;29;20047;-82
2022/01/01 06:44:08;;;;;;;252.70;112.03;;;;;;;1.95;100.00;97804.09;4919873;29;20043;-84
2022/01/01 06:46:37;;;;;;;269.33;113.50;;;;;;;1.91;100.00;97812.09;4921852;29;20047;-83
2022/01/01 06:49:03;;;;;;;234.05;107.65;;;;;;;1.91;100.00;97820.00;4937544;29;20045;-84
2022/01/01 06:51:28;;;;;;;239.38;105.75;;;;;;;1.85;100.00;97821.03;4921724;29;20050;-84
2022/01/01 06:53:54;;;;;;;235.80;108.22;;;;;;;1.89;100.00;97819.19;4921772;29;20042;-84
2022/01/01 06:56:20;;;;;;;212.45;100.63;;;;;;;1.96;100.00;97820.78;4921887;29;20039;-84
2022/01/01 06:58:45;;;;;;;259.92;121.35;;;;;;;2.22;100.00;97826.28;4937199;29;20139;-84
2022/01/01 07:01:11;;;;;;;289.38;134.77;;;;;;;2.43;100.00;97817.84;4926623;29;20031;-85
2022/01/01 07:03:37;;;;;;;305.58;143.23;;;;;;;2.67;100.00;97830.44;4924686;29;20528;-84
2022/01/01 07:06:03;;;;;;;291.38;140.18;;;;;;;3.26;100.00;97827.94;4938006;29;20126;-85
2022/01/01 07:08:29;;;;;;;267.75;127.97;;;;;;;3.98;100.00;97822.19;4917592;29;20090;-85
2022/01/01 07:10:55;;;;;;;255.10;129.68;;;;;;;4.80;100.00;97832.69;4913836;29;20446;-85
2022/01/01 07:13:21;;;;;;;283.30;138.30;;;;;;;5.48;100.00;97840.81;4906599;29;20046;-84
2022/01/01 07:15:46;;;;;;;259.65;130.60;;;;;;;6.27;100.00;97838.66;4926425;29;20036;-84
2022/01/01 07:18:12;;;;;;;256.88;127.88;;;;;;;6.24;98.47;97837.91;4919021;29;20049;-83
2022/01/01 07:20:38;;;;;;;231.77;115.00;;;;;;;5.59;100.00;97843.97;4921647;29;20035;-85
2022/01/01 07:23:03;;;;;;;200.38;101.47;;;;;;;5.45;100.00;97846.25;4921570;29;20046;-86
2022/01/01 07:25:29;;;;;;;173.70;88.57;;;;;;;5.82;100.00;97846.59;4916751;29;20122;-85
2022/01/01 07:27:55;;;;;;;194.15;98.40;;;;;;;5.61;100.00;97843.88;4934543;29;20054;-87
2022/01/01 07:30:21;;;;;;;185.60;94.68;;;;;;;6.13;100.00;97850.75;4936874;29;20027;-85
2022/01/01 07:32:48;;;;;;;198.40;100.82;;;;;;;6.18;96.63;97848.78;4937983;29;20039;-85
2022/01/01 07:35:15;;;;;;;197.52;99.72;;;;;;;6.36;96.76;97853.38;4937940;29;20042;-87
2022/01/01 07:37:40;;;;;;;185.48;90.47;;;;;;;7.59;91.95;97846.25;4908204;29;20174;-86
2022/01/01 07:40:09;;;;;;;182.80;94.13;;;;;;;9.05;80.63;97846.25;4918758;29;20127;-86
2022/01/01 07:42:35;;;;;;;196.07;104.47;;;;;;;10.04;72.34;97857.84;4906035;29;20035;-85
2022/01/01 07:45:01;;;;;;;207.35;107.50;;;;;;;11.01;69.03;97835.41;4909787;29;20122;-85
2022/01/01 07:47:27;;;;;;;612.90;312.40;;;;;;;11.59;65.59;97841.66;4918571;29;20039;-86
2022/01/01 07:49:53;;;;;;;348.85;184.18;;;;;;;11.95;63.90;97849.25;4921685;29;20043;-85
2022/01/01 07:52:18;;;;;;;217.43;122.80;;;;;;;12.90;60.07;97847.53;4911334;29;20038;-86
2022/01/01 07:54:44;;;;;;;227.13;127.18;;;;;;;12.13;62.23;97860.66;4907065;29;20477;-86
2022/01/01 07:57:09;;;;;;;212.45;122.38;;;;;;;12.44;61.06;97813.00;4927835;29;20113;-86
2022/01/01 07:59:35;;;;;;;217.10;120.15;;;;;;;13.19;58.94;97845.63;4928694;29;20492;-87
2022/01/01 08:02:01;;;;;;;245.10;134.88;;;;;;;13.70;58.68;97847.41;4902504;29;20046;-86
2022/01/01 08:04:26;;;;;;;191.52;110.93;;;;;;;14.70;54.66;97844.72;4925954;29;20063;-86
2022/01/01 08:06:52;;;;;;;201.85;121.00;;;;;;;15.14;53.79;97840.44;4911051;29;20086;-86
2022/01/01 08:09:17;;;;;;;151.55;91.15;;;;;;;14.92;54.17;97837.63;4918322;29;20070;-86
2022/01/01 08:11:43;;;;;;;178.10;102.00;;;;;;;15.26;52.96;97816.22;4918509;29;20102;-86
2022/01/01 08:14:09;;;;;;;161.43;100.13;;;;;;;15.16;54.33;97845.72;4918513;29;20044;-86
2022/01/01 08:16:35;;;;;;;176.20;106.50;;;;;;;14.46;55.27;97844.66;4914303;29;20101;-86
2022/01/01 08:19:00;;;;;;;143.63;84.70;;;;;;;15.50;53.51;97847.59;4930040;29;20039;-85
2022/01/01 08:21:26;;;;;;;148.65;90.65;;;;;;;15.93;52.71;97836.16;4933216;29;20050;-85
2022/01/01 08:23:51;;;;;;;159.75;98.38;;;;;;;15.40;53.84;97851.94;4913285;29;20047;-85
2022/01/01 08:26:17;;;;;;;155.45;95.57;;;;;;;16.11;53.49;97837.38;4921547;29;20488;-85
2022/01/01 08:28:43;;;;;;;135.82;83.53;;;;;;;17.34;50.42;97837.06;4914446;29;20054;-86
2022/01/01 08:31:08;;;;;;;144.40;90.20;;;;;;;17.35;50.38;97848.72;4919875;29;20035;-85
2022/01/01 08:33:34;;;;;;;99.55;63.15;;;;;;;17.34;50.20;97836.19;4902507;29;20050;-87
2022/01/01 08:36:03;;;;;;;108.82;67.70;;;;;;;17.50;49.48;97831.22;4907793;29;20039;-88
2022/01/01 08:38:29;;;;;;;190.20;112.03;;;;;;;16.40;51.57;97856.63;4917992;29;20034;-76
2022/01/01 08:40:55;;;;;;;189.10;115.00;;;;;;;15.26;54.57;97860.19;4924370;29;20035;-77
2022/01/01 08:43:22;;;;;;;208.77;127.55;;;;;;;14.27;57.71;97874.75;4911797;29;20538;-78
2022/01/01 08:45:48;;;;;;;212.52;128.90;;;;;;;13.62;62.07;97882.03;4924600;29;20478;-78
2022/01/01 08:48:14;;;;;;;221.77;128.88;;;;;;;14.34;59.85;97857.19;4909769;29;20066;-81
2022/01/01 08:50:39;;;;;;;214.13;133.40;;;;;;;15.37;57.00;97862.94;4923815;29;20038;-82
2022/01/01 08:53:08;;;;;;;258.98;150.30;;;;;;;16.11;54.77;97843.66;4926897;29;20423;-83
2022/01/01 08:55:50;;;;;;;223.27;140.98;;;;;;;15.85;54.49;97860.16;4928802;29;20503;-78
2022/01/01 08:58:15;;;;;;;226.05;139.00;;;;;;;16.04;54.47;97844.25;4912209;29;20041;-76
2022/01/01 09:00:41;;;;;;;210.55;132.18;;;;;;;15.95;54.43;97844.97;4933243;29;20044;-80
2022/01/01 09:03:15;;;;;;;200.07;122.40;;;;;;;14.73;58.11;97842.66;4919679;29;20035;-84
2022/01/01 09:05:41;;;;;;;171.85;106.95;;;;;;;14.61;59.50;97868.66;4930470;29;20051;-86
2022/01/01 09:08:07;;;;;;;147.00;87.80;;;;;;;15.10;58.85;97878.50;4917273;29;20035;-75
2022/01/01 09:10:32;;;;;;;130.30;79.63;;;;;;;16.97;54.44;97853.78;4916192;29;20047;-79
2022/01/01 09:13:01;;;;;;;94.22;56.45;;;;;;;17.65;51.27;97856.13;4916165;29;20484;-80
2022/01/01 09:15:26;;;;;;;96.82;60.42;;;;;;;17.63;52.13;97853.53;4920999;29;20039;-79
2022/01/01 09:17:52;;;;;;;98.65;60.88;;;;;;;18.80;49.24;97844.03;4919550;29;20561;-79
2022/01/01 09:20:18;;;;;;;88.93;54.70;;;;;;;19.27;47.25;97844.25;4930729;29;20510;-80
2022/01/01 09:22:43;;;;;;;88.93;57.63;;;;;;;20.02;46.58;97836.25;4911734;29;20047;-80
2022/01/01 09:25:09;;;;;;;96.75;61.63;;;;;;;20.53;44.47;97824.94;4909946;29;20035;-80
2022/01/01 09:27:35;;;;;;;88.95;58.72;;;;;;;20.38;45.38;97826.44;4933276;29;20042;-88
2022/01/01 09:30:00;;;;;;;86.20;55.15;;;;;;;20.61;44.38;97838.63;4934649;29;20027;-87
2022/01/01 09:32:29;;;;;;;78.45;52.42;;;;;;;20.27;44.52;97857.34;4928206;29;20042;-86
2022/01/01 09:34:55;;;;;;;104.05;68.80;;;;;;;19.36;47.51;97843.41;4933473;29;20027;-75
2022/01/01 09:37:21;;;;;;;72.13;48.55;;;;;;;19.56;46.47;97855.16;4933704;29;20122;-76
2022/01/01 09:39:46;;;;;;;72.50;48.90;;;;;;;20.54;44.93;97832.09;4911857;29;20135;-81
2022/01/01 09:42:12;;;;;;;68.15;45.78;;;;;;;21.14;42.97;97840.66;4932379;29;20043;-80
2022/01/01 09:44:38;;;;;;;62.08;44.13;;;;;;;21.03;43.41;97839.84;4916072;29;20038;-81
2022/01/01 09:47:04;;;;;;;53.05;35.88;;;;;;;19.95;44.64;97851.41;4921062;29;20035;-78
2022/01/01 09:49:29;;;;;;;54.42;38.80;;;;;;;19.30;47.02;97852.13;4929300;29;20425;-78
2022/01/01 09:51:55;;;;;;;65.15;40.45;;;;;;;18.86;48.18;97873.31;4929574;29;20118;-78
2022/01/01 09:54:21;;;;;;;63.50;40.90;;;;;;;18.23;49.27;97879.88;4918257;29;20047;-78
2022/01/01 09:56:46;;;;;;;56.53;36.08;;;;;;;14.82;58.98;97903.94;4914409;29;20070;-77
2022/01/01 09:59:13;;;;;;;49.95;30.90;;;;;;;14.05;63.68;97912.19;4932145;29;20046;-85
2022/01/01 10:01:39;;;;;;;49.65;31.58;;;;;;;13.76;66.70;97843.44;4932345;29;20058;-86
2022/01/01 10:04:15;;;;;;;40.80;25.75;;;;;;;13.80;67.08;97901.41;4938721;29;20043;-89
2022/01/01 10:06:42;;;;;;;52.58;31.23;;;;;;;13.05;70.43;97868.00;4933767;29;20086;-89
2022/01/01 10:09:10;;;;;;;51.13;31.98;;;;;;;12.80;72.24;97859.84;4905696;29;20043;-92
2022/01/01 10:11:36;;;;;;;44.10;25.85;;;;;;;13.06;71.82;97904.63;4926737;29;20035;-87
2022/01/01 10:14:06;;;;;;;45.05;28.23;;;;;;;12.32;75.64;97883.53;4926911;29;20062;-91
2022/01/01 10:16:42;;;;;;;45.55;27.10;;;;;;;12.20;77.94;97876.28;4922039;29;20035;-92
2022/01/01 10:19:10;;;;;;;54.60;32.65;;;;;;;11.71;81.83;97872.22;4922397;29;20195;-92
2022/01/01 10:24:40;;;;;;;58.95;34.38;;;;;;;10.87;90.89;97825.50;4948537;28;20051;-90
2022/01/01 10:29:56;;;;;;;61.88;36.25;;;;;;;11.41;94.78;97859.69;4924836;29;20137;-89
2022/01/01 10:32:22;;;;;;;73.47;43.38;;;;;;;11.43;92.40;97814.09;4907559;29;20043;-89
2022/01/01 10:34:59;;;;;;;72.78;44.28;;;;;;;11.74;91.51;97818.44;4932149;29;20105;-90
2022/01/01 10:37:31;;;;;;;64.93;38.92;;;;;;;11.76;91.26;97800.44;4925175;29;20047;-90
2022/01/01 10:39:58;;;;;;;73.20;43.35;;;;;;;11.97;88.32;97779.47;4925826;29;20465;-90
2022/01/01 10:45:41;;;;;;;77.13;43.20;;;;;;;12.88;85.65;97791.28;4942568;29;20138;-87
2022/01/01 10:48:26;;;;;;;78.32;46.55;;;;;;;14.24;78.65;97799.63;4940758;29;20047;-87
2022/01/01 10:50:55;;;;;;;78.63;46.10;;;;;;;16.37;66.97;97790.25;4928806;29;20039;-86
2022/01/01 10:53:25;;;;;;;73.85;45.58;;;;;;;18.91;58.56;97795.13;4923917;29;20031;-88
2022/01/01 10:55:53;;;;;;;66.03;41.33;;;;;;;19.82;52.95;97778.41;4939334;28;20090;-89
2022/01/01 10:58:24;;;;;;;55.20;34.90;;;;;;;18.86;54.68;97791.97;4915984;29;20043;-89
2022/01/01 11:00:51;;;;;;;55.10;36.67;;;;;;;19.15;54.26;97796.56;4923772;29;20014;-90
2022/01/01 11:03:18;;;;;;;59.05;37.60;;;;;;;17.88;57.52;97784.63;4923506;29;20031;-88
2022/01/01 11:05:46;;;;;;;61.17;38.67;;;;;;;17.46;59.37;97785.59;4939218;29;20185;-90
2022/01/01 11:08:12;;;;;;;68.38;45.45;;;;;;;17.34;60.19;97787.53;4939765;29;20058;-89
2022/01/01 11:10:39;;;;;;;73.03;45.50;;;;;;;16.51;63.47;97787.28;4935997;29;20067;-88
2022/01/01 11:13:06;;;;;;;75.78;45.28;;;;;;;15.54;67.54;97761.91;4929514;29;20483;-81
2022/01/01 11:15:32;;;;;;;77.13;50.40;;;;;;;16.04;67.18;97755.19;4930206;29;20122;-91